sensor_id;sensor_type;location;lat;lon;timestamp;P1;durP1;ratioP1;P2;durP2;ratioP2
83443;SDS011;73374;41.170;-96.156;2024-02-21T00:04:56;9.98;;;0.70;;
83443;SDS011;73374;41.170;-96.156;2024-02-21T00:09:59;2.67;;;0.40;;
83443;SDS011;73374;41.170;-96.156;2024-02-21T00:15:04;4.32;;;0.68;;
83443;SDS011;73374;41.170;-96.156;2024-02-21T00:20:08;7.97;;;0.60;;
83443;SDS011;73374;41.170;-96.156;2024-02-21T00:25:11;7.60;;;0.50;;
83443;SDS011;73374;41.170;-96.156;2024-02-21T00:30:16;5.97;;;0.63;;
83443;SDS011;73374;41.170;-96.156;2024-02-21T00:35:19;6.32;;;0.65;;
83443;SDS011;73374;41.170;-96.156;2024-02-21T00:40:22;6.35;;;1.00;;
83443;SDS011;73374;41.170;-96.156;2024-02-21T00:45:27;10.85;;;1.52;;
83443;SDS011;73374;41.170;-96.156;2024-02-21T00:50:35;14.80;;;1.42;;
83443;SDS011;73374;41.170;-96.156;2024-02-21T00:55:38;20.10;;;1.83;;
83443;SDS011;73374;41.170;-96.156;2024-02-21T01:00:43;23.23;;;1.92;;
83443;SDS011;73374;41.170;-96.156;2024-02-21T01:05:46;23.52;;;1.77;;
83443;SDS011;73374;41.170;-96.156;2024-02-21T01:10:49;20.30;;;1.42;;
83443;SDS011;73374;41.170;-96.156;2024-02-21T01:15:54;9.20;;;1.05;;
83443;SDS011;73374;41.170;-96.156;2024-02-21T01:20:57;3.28;;;0.60;;
83443;SDS011;73374;41.170;-96.156;2024-02-21T01:26:00;6.50;;;0.90;;
83443;SDS011;73374;41.170;-96.156;2024-02-21T01:31:04;5.75;;;0.70;;
83443;SDS011;73374;41.170;-96.156;2024-02-21T01:36:07;7.60;;;0.90;;
83443;SDS011;73374;41.170;-96.156;2024-02-21T01:41:11;11.75;;;1.13;;
83443;SDS011;73374;41.170;-96.156;2024-02-21T01:46:15;6.93;;;0.90;;
83443;SDS011;73374;41.170;-96.156;2024-02-21T01:51:19;15.18;;;1.08;;
83443;SDS011;73374;41.170;-96.156;2024-02-21T01:56:22;17.30;;;1.00;;
83443;SDS011;73374;41.170;-96.156;2024-02-21T02:01:27;10.10;;;0.80;;
83443;SDS011;73374;41.170;-96.156;2024-02-21T02:06:32;11.20;;;0.70;;
83443;SDS011;73374;41.170;-96.156;2024-02-21T02:11:35;5.22;;;1.40;;
83443;SDS011;73374;41.170;-96.156;2024-02-21T02:16:40;7.13;;;0.63;;
83443;SDS011;73374;41.170;-96.156;2024-02-21T02:21:45;10.50;;;0.65;;
83443;SDS011;73374;41.170;-96.156;2024-02-21T02:26:53;3.58;;;0.60;;
83443;SDS011;73374;41.170;-96.156;2024-02-21T02:31:56;7.72;;;0.63;;
83443;SDS011;73374;41.170;-96.156;2024-02-21T02:36:59;6.03;;;0.50;;
83443;SDS011;73374;41.170;-96.156;2024-02-21T02:42:04;5.63;;;0.47;;
83443;SDS011;73374;41.170;-96.156;2024-02-21T02:47:08;2.28;;;0.35;;
83443;SDS011;73374;41.170;-96.156;2024-02-21T02:52:11;4.22;;;0.40;;
83443;SDS011;73374;41.170;-96.156;2024-02-21T02:57:16;3.35;;;0.70;;
83443;SDS011;73374;41.170;-96.156;2024-02-21T03:02:19;3.05;;;0.17;;
83443;SDS011;73374;41.170;-96.156;2024-02-21T03:07:22;4.40;;;0.43;;
83443;SDS011;73374;41.170;-96.156;2024-02-21T03:12:28;2.08;;;0.20;;
83443;SDS011;73374;41.170;-96.156;2024-02-21T03:17:31;7.22;;;0.73;;
83443;SDS011;73374;41.170;-96.156;2024-02-21T03:22:34;1.50;;;0.17;;
83443;SDS011;73374;41.170;-96.156;2024-02-21T03:27:39;2.47;;;0.20;;
83443;SDS011;73374;41.170;-96.156;2024-02-21T03:32:42;3.47;;;0.30;;
83443;SDS011;73374;41.170;-96.156;2024-02-21T03:37:45;1.15;;;0.20;;
83443;SDS011;73374;41.170;-96.156;2024-02-21T03:42:50;0.35;;;0.10;;
83443;SDS011;73374;41.170;-96.156;2024-02-21T03:47:53;0.40;;;0.20;;
83443;SDS011;73374;41.170;-96.156;2024-02-21T03:52:56;3.00;;;0.60;;
83443;SDS011;73374;41.170;-96.156;2024-02-21T03:58:00;2.90;;;0.20;;
83443;SDS011;73374;41.170;-96.156;2024-02-21T04:03:04;3.13;;;0.30;;
83443;SDS011;73374;41.170;-96.156;2024-02-21T04:08:07;4.85;;;0.45;;
83443;SDS011;73374;41.170;-96.156;2024-02-21T04:13:12;1.90;;;0.20;;
83443;SDS011;73374;41.170;-96.156;2024-02-21T04:18:15;1.25;;;0.20;;
83443;SDS011;73374;41.170;-96.156;2024-02-21T04:23:18;2.20;;;0.20;;
83443;SDS011;73374;41.170;-96.156;2024-02-21T04:28:22;3.20;;;0.10;;
83443;SDS011;73374;41.170;-96.156;2024-02-21T04:33:25;0.35;;;0.00;;
83443;SDS011;73374;41.170;-96.156;2024-02-21T04:38:29;0.15;;;0.10;;
83443;SDS011;73374;41.170;-96.156;2024-02-21T04:43:34;3.33;;;0.20;;
83443;SDS011;73374;41.170;-96.156;2024-02-21T04:48:37;0.50;;;0.10;;
83443;SDS011;73374;41.170;-96.156;2024-02-21T04:53:40;3.50;;;0.25;;
83443;SDS011;73374;41.170;-96.156;2024-02-21T04:58:44;0.05;;;0.05;;
83443;SDS011;73374;41.170;-96.156;2024-02-21T05:03:47;0.50;;;0.20;;
83443;SDS011;73374;41.170;-96.156;2024-02-21T05:08:50;0.70;;;0.20;;
83443;SDS011;73374;41.170;-96.156;2024-02-21T05:13:55;1.30;;;0.32;;
83443;SDS011;73374;41.170;-96.156;2024-02-21T05:18:58;3.05;;;0.38;;
83443;SDS011;73374;41.170;-96.156;2024-02-21T05:24:01;3.10;;;0.20;;
83443;SDS011;73374;41.170;-96.156;2024-02-21T05:29:06;1.83;;;0.30;;
83443;SDS011;73374;41.170;-96.156;2024-02-21T05:34:09;2.83;;;0.50;;
83443;SDS011;73374;41.170;-96.156;2024-02-21T05:39:14;2.83;;;0.40;;
83443;SDS011;73374;41.170;-96.156;2024-02-21T05:44:19;0.40;;;0.40;;
83443;SDS011;73374;41.170;-96.156;2024-02-21T05:49:22;0.73;;;0.22;;
83443;SDS011;73374;41.170;-96.156;2024-02-21T05:54:26;3.63;;;0.30;;
83443;SDS011;73374;41.170;-96.156;2024-02-21T05:59:31;3.85;;;0.45;;
83443;SDS011;73374;41.170;-96.156;2024-02-21T06:04:34;0.63;;;0.20;;
83443;SDS011;73374;41.170;-96.156;2024-02-21T06:09:37;1.30;;;0.25;;
83443;SDS011;73374;41.170;-96.156;2024-02-21T06:14:42;2.58;;;0.20;;
83443;SDS011;73374;41.170;-96.156;2024-02-21T06:19:45;0.52;;;0.22;;
83443;SDS011;73374;41.170;-96.156;2024-02-21T06:24:48;3.00;;;0.40;;
83443;SDS011;73374;41.170;-96.156;2024-02-21T06:29:52;2.75;;;0.88;;
83443;SDS011;73374;41.170;-96.156;2024-02-21T06:34:55;3.08;;;0.40;;
83443;SDS011;73374;41.170;-96.156;2024-02-21T06:39:58;0.80;;;0.40;;
83443;SDS011;73374;41.170;-96.156;2024-02-21T06:45:04;5.05;;;0.60;;
83443;SDS011;73374;41.170;-96.156;2024-02-21T06:50:08;2.72;;;0.55;;
83443;SDS011;73374;41.170;-96.156;2024-02-21T06:55:11;2.85;;;0.52;;
83443;SDS011;73374;41.170;-96.156;2024-02-21T07:00:17;3.22;;;0.73;;
83443;SDS011;73374;41.170;-96.156;2024-02-21T07:05:23;2.92;;;0.50;;
83443;SDS011;73374;41.170;-96.156;2024-02-21T07:10:26;5.63;;;0.60;;
83443;SDS011;73374;41.170;-96.156;2024-02-21T07:15:31;4.60;;;0.70;;
83443;SDS011;73374;41.170;-96.156;2024-02-21T07:20:34;1.05;;;0.60;;
83443;SDS011;73374;41.170;-96.156;2024-02-21T07:25:37;1.52;;;0.70;;
83443;SDS011;73374;41.170;-96.156;2024-02-21T07:30:42;3.08;;;1.00;;
83443;SDS011;73374;41.170;-96.156;2024-02-21T07:35:45;2.00;;;0.80;;
83443;SDS011;73374;41.170;-96.156;2024-02-21T07:40:49;5.82;;;0.90;;
83443;SDS011;73374;41.170;-96.156;2024-02-21T07:45:53;1.00;;;0.70;;
83443;SDS011;73374;41.170;-96.156;2024-02-21T07:50:56;3.15;;;0.95;;
83443;SDS011;73374;41.170;-96.156;2024-02-21T07:55:59;5.20;;;0.80;;
83443;SDS011;73374;41.170;-96.156;2024-02-21T08:01:04;2.88;;;1.00;;
83443;SDS011;73374;41.170;-96.156;2024-02-21T08:06:11;1.58;;;0.80;;
83443;SDS011;73374;41.170;-96.156;2024-02-21T08:11:15;2.08;;;0.90;;
83443;SDS011;73374;41.170;-96.156;2024-02-21T08:16:20;1.80;;;0.95;;
83443;SDS011;73374;41.170;-96.156;2024-02-21T08:21:23;2.95;;;1.10;;
83443;SDS011;73374;41.170;-96.156;2024-02-21T08:26:26;2.45;;;0.93;;
83443;SDS011;73374;41.170;-96.156;2024-02-21T08:31:31;2.45;;;0.93;;
83443;SDS011;73374;41.170;-96.156;2024-02-21T08:36:34;8.15;;;1.75;;
83443;SDS011;73374;41.170;-96.156;2024-02-21T08:41:38;1.95;;;0.93;;
83443;SDS011;73374;41.170;-96.156;2024-02-21T08:46:59;6.82;;;1.00;;
83443;SDS011;73374;41.170;-96.156;2024-02-21T08:52:02;2.72;;;1.10;;
83443;SDS011;73374;41.170;-96.156;2024-02-21T08:57:06;2.85;;;0.90;;
83443;SDS011;73374;41.170;-96.156;2024-02-21T09:02:10;3.50;;;1.70;;
83443;SDS011;73374;41.170;-96.156;2024-02-21T09:07:13;5.40;;;1.65;;
83443;SDS011;73374;41.170;-96.156;2024-02-21T09:12:16;3.53;;;1.90;;
83443;SDS011;73374;41.170;-96.156;2024-02-21T09:17:21;1.83;;;1.20;;
83443;SDS011;73374;41.170;-96.156;2024-02-21T09:22:24;3.63;;;0.90;;
83443;SDS011;73374;41.170;-96.156;2024-02-21T09:27:27;4.88;;;1.77;;
83443;SDS011;73374;41.170;-96.156;2024-02-21T09:32:32;2.10;;;1.35;;
83443;SDS011;73374;41.170;-96.156;2024-02-21T09:37:35;5.53;;;1.50;;
83443;SDS011;73374;41.170;-96.156;2024-02-21T09:42:39;1.73;;;1.20;;
83443;SDS011;73374;41.170;-96.156;2024-02-21T09:47:50;3.67;;;1.15;;
83443;SDS011;73374;41.170;-96.156;2024-02-21T09:53:09;2.90;;;1.33;;
83443;SDS011;73374;41.170;-96.156;2024-02-21T09:58:15;2.22;;;1.17;;
83443;SDS011;73374;41.170;-96.156;2024-02-21T10:03:19;4.40;;;1.13;;
83443;SDS011;73374;41.170;-96.156;2024-02-21T10:08:23;1.80;;;1.30;;
83443;SDS011;73374;41.170;-96.156;2024-02-21T10:13:26;5.25;;;1.20;;
83443;SDS011;73374;41.170;-96.156;2024-02-21T10:18:31;2.22;;;1.25;;
83443;SDS011;73374;41.170;-96.156;2024-02-21T10:23:44;1.88;;;1.10;;
83443;SDS011;73374;41.170;-96.156;2024-02-21T10:28:47;7.43;;;1.40;;
83443;SDS011;73374;41.170;-96.156;2024-02-21T10:33:56;1.70;;;1.20;;
83443;SDS011;73374;41.170;-96.156;2024-02-21T10:39:00;6.35;;;1.30;;
83443;SDS011;73374;41.170;-96.156;2024-02-21T10:49:10;2.17;;;1.20;;
83443;SDS011;73374;41.170;-96.156;2024-02-21T10:54:23;3.22;;;1.70;;
83443;SDS011;73374;41.170;-96.156;2024-02-21T10:59:39;2.13;;;1.15;;
83443;SDS011;73374;41.170;-96.156;2024-02-21T11:04:44;1.63;;;0.95;;
83443;SDS011;73374;41.170;-96.156;2024-02-21T11:09:51;3.20;;;1.25;;
83443;SDS011;73374;41.170;-96.156;2024-02-21T11:15:03;4.03;;;1.48;;
83443;SDS011;73374;41.170;-96.156;2024-02-21T11:20:14;2.95;;;1.50;;
83443;SDS011;73374;41.170;-96.156;2024-02-21T11:25:21;2.10;;;1.20;;
83443;SDS011;73374;41.170;-96.156;2024-02-21T11:30:26;5.47;;;1.60;;
83443;SDS011;73374;41.170;-96.156;2024-02-21T11:35:34;4.40;;;1.58;;
83443;SDS011;73374;41.170;-96.156;2024-02-21T11:40:39;1.25;;;0.90;;
83443;SDS011;73374;41.170;-96.156;2024-02-21T11:45:42;2.78;;;1.60;;
83443;SDS011;73374;41.170;-96.156;2024-02-21T11:55:56;3.00;;;1.55;;
83443;SDS011;73374;41.170;-96.156;2024-02-21T12:06:04;3.63;;;1.92;;
83443;SDS011;73374;41.170;-96.156;2024-02-21T12:11:16;4.63;;;1.33;;
83443;SDS011;73374;41.170;-96.156;2024-02-21T12:16:21;4.25;;;2.00;;
83443;SDS011;73374;41.170;-96.156;2024-02-21T12:26:28;3.10;;;1.52;;
83443;SDS011;73374;41.170;-96.156;2024-02-21T12:31:31;5.70;;;1.80;;
83443;SDS011;73374;41.170;-96.156;2024-02-21T12:36:40;3.80;;;2.08;;
83443;SDS011;73374;41.170;-96.156;2024-02-21T12:46:46;2.40;;;1.50;;
83443;SDS011;73374;41.170;-96.156;2024-02-21T12:51:51;2.60;;;1.70;;
83443;SDS011;73374;41.170;-96.156;2024-02-21T12:56:54;2.60;;;1.63;;
83443;SDS011;73374;41.170;-96.156;2024-02-21T13:07:01;4.40;;;1.73;;
83443;SDS011;73374;41.170;-96.156;2024-02-21T13:12:04;7.93;;;2.05;;
83443;SDS011;73374;41.170;-96.156;2024-02-21T13:17:08;4.50;;;1.70;;
83443;SDS011;73374;41.170;-96.156;2024-02-21T13:22:13;7.38;;;1.83;;
83443;SDS011;73374;41.170;-96.156;2024-02-21T13:27:16;5.47;;;1.80;;
83443;SDS011;73374;41.170;-96.156;2024-02-21T13:32:19;7.85;;;1.80;;
83443;SDS011;73374;41.170;-96.156;2024-02-21T13:37:23;3.22;;;1.92;;
83443;SDS011;73374;41.170;-96.156;2024-02-21T13:42:27;3.80;;;2.00;;
83443;SDS011;73374;41.170;-96.156;2024-02-21T13:52:34;5.68;;;1.83;;
83443;SDS011;73374;41.170;-96.156;2024-02-21T13:57:37;4.25;;;1.90;;
83443;SDS011;73374;41.170;-96.156;2024-02-21T14:02:40;6.28;;;1.70;;
83443;SDS011;73374;41.170;-96.156;2024-02-21T14:07:48;5.07;;;1.85;;
83443;SDS011;73374;41.170;-96.156;2024-02-21T14:12:51;10.32;;;2.58;;
83443;SDS011;73374;41.170;-96.156;2024-02-21T14:22:58;7.40;;;2.58;;
83443;SDS011;73374;41.170;-96.156;2024-02-21T14:28:02;5.88;;;2.70;;
83443;SDS011;73374;41.170;-96.156;2024-02-21T14:33:05;4.60;;;2.47;;
83443;SDS011;73374;41.170;-96.156;2024-02-21T14:38:10;8.02;;;2.78;;
83443;SDS011;73374;41.170;-96.156;2024-02-21T14:43:13;5.82;;;2.38;;
83443;SDS011;73374;41.170;-96.156;2024-02-21T14:48:16;4.28;;;2.40;;
83443;SDS011;73374;41.170;-96.156;2024-02-21T14:53:21;6.32;;;2.63;;
83443;SDS011;73374;41.170;-96.156;2024-02-21T14:58:24;8.45;;;3.10;;
83443;SDS011;73374;41.170;-96.156;2024-02-21T15:03:27;4.32;;;2.25;;
83443;SDS011;73374;41.170;-96.156;2024-02-21T15:08:32;6.13;;;2.60;;
83443;SDS011;73374;41.170;-96.156;2024-02-21T15:13:35;5.25;;;2.80;;
83443;SDS011;73374;41.170;-96.156;2024-02-21T15:18:38;5.60;;;2.78;;
83443;SDS011;73374;41.170;-96.156;2024-02-21T15:23:42;7.85;;;2.95;;
83443;SDS011;73374;41.170;-96.156;2024-02-21T15:28:45;4.35;;;2.67;;
83443;SDS011;73374;41.170;-96.156;2024-02-21T15:33:48;10.20;;;3.67;;
83443;SDS011;73374;41.170;-96.156;2024-02-21T15:38:54;7.95;;;2.50;;
83443;SDS011;73374;41.170;-96.156;2024-02-21T15:43:57;6.18;;;3.13;;
83443;SDS011;73374;41.170;-96.156;2024-02-21T15:49:00;7.45;;;3.50;;
83443;SDS011;73374;41.170;-96.156;2024-02-21T15:54:05;5.05;;;2.75;;
83443;SDS011;73374;41.170;-96.156;2024-02-21T15:59:08;6.25;;;3.35;;
83443;SDS011;73374;41.170;-96.156;2024-02-21T16:04:11;4.88;;;3.10;;
83443;SDS011;73374;41.170;-96.156;2024-02-21T16:09:16;7.57;;;3.58;;
83443;SDS011;73374;41.170;-96.156;2024-02-21T16:14:19;5.63;;;2.88;;
83443;SDS011;73374;41.170;-96.156;2024-02-21T16:19:22;9.18;;;2.72;;
83443;SDS011;73374;41.170;-96.156;2024-02-21T16:24:27;6.70;;;2.80;;
83443;SDS011;73374;41.170;-96.156;2024-02-21T16:29:30;6.55;;;2.53;;
83443;SDS011;73374;41.170;-96.156;2024-02-21T16:34:33;3.80;;;2.50;;
83443;SDS011;73374;41.170;-96.156;2024-02-21T16:39:38;6.53;;;3.58;;
83443;SDS011;73374;41.170;-96.156;2024-02-21T16:44:41;4.50;;;2.85;;
83443;SDS011;73374;41.170;-96.156;2024-02-21T16:49:45;11.43;;;2.97;;
83443;SDS011;73374;41.170;-96.156;2024-02-21T16:54:49;5.82;;;3.33;;
83443;SDS011;73374;41.170;-96.156;2024-02-21T16:59:52;5.35;;;2.22;;
83443;SDS011;73374;41.170;-96.156;2024-02-21T17:04:55;4.15;;;2.50;;
83443;SDS011;73374;41.170;-96.156;2024-02-21T17:10:00;4.63;;;3.10;;
83443;SDS011;73374;41.170;-96.156;2024-02-21T17:15:03;6.45;;;2.55;;
83443;SDS011;73374;41.170;-96.156;2024-02-21T17:20:07;6.13;;;2.65;;
83443;SDS011;73374;41.170;-96.156;2024-02-21T17:25:12;6.65;;;2.90;;
83443;SDS011;73374;41.170;-96.156;2024-02-21T17:30:16;4.63;;;3.00;;
83443;SDS011;73374;41.170;-96.156;2024-02-21T17:35:19;3.85;;;2.50;;
83443;SDS011;73374;41.170;-96.156;2024-02-21T17:40:24;5.43;;;2.85;;
83443;SDS011;73374;41.170;-96.156;2024-02-21T17:45:27;6.05;;;2.58;;
83443;SDS011;73374;41.170;-96.156;2024-02-21T17:50:30;5.60;;;2.70;;
83443;SDS011;73374;41.170;-96.156;2024-02-21T17:55:35;7.10;;;3.15;;
83443;SDS011;73374;41.170;-96.156;2024-02-21T18:00:38;7.72;;;3.30;;
83443;SDS011;73374;41.170;-96.156;2024-02-21T18:05:41;9.13;;;2.60;;
83443;SDS011;73374;41.170;-96.156;2024-02-21T18:10:46;4.07;;;2.67;;
83443;SDS011;73374;41.170;-96.156;2024-02-21T18:15:49;4.75;;;3.40;;
83443;SDS011;73374;41.170;-96.156;2024-02-21T18:20:52;10.73;;;3.20;;
83443;SDS011;73374;41.170;-96.156;2024-02-21T18:25:57;7.97;;;2.90;;
83443;SDS011;73374;41.170;-96.156;2024-02-21T18:31:00;3.95;;;2.85;;
83443;SDS011;73374;41.170;-96.156;2024-02-21T18:36:03;8.95;;;3.25;;
83443;SDS011;73374;41.170;-96.156;2024-02-21T18:41:08;4.45;;;2.40;;
83443;SDS011;73374;41.170;-96.156;2024-02-21T18:46:11;3.22;;;1.92;;
83443;SDS011;73374;41.170;-96.156;2024-02-21T18:51:14;6.68;;;2.25;;
83443;SDS011;73374;41.170;-96.156;2024-02-21T18:56:20;8.65;;;2.95;;
83443;SDS011;73374;41.170;-96.156;2024-02-21T19:01:23;6.00;;;2.65;;
83443;SDS011;73374;41.170;-96.156;2024-02-21T19:06:27;5.68;;;2.60;;
83443;SDS011;73374;41.170;-96.156;2024-02-21T19:11:31;7.30;;;2.65;;
83443;SDS011;73374;41.170;-96.156;2024-02-21T19:16:35;10.52;;;3.38;;
83443;SDS011;73374;41.170;-96.156;2024-02-21T19:21:38;11.30;;;3.78;;
83443;SDS011;73374;41.170;-96.156;2024-02-21T19:26:42;8.30;;;3.13;;
83443;SDS011;73374;41.170;-96.156;2024-02-21T19:31:45;8.93;;;3.20;;
83443;SDS011;73374;41.170;-96.156;2024-02-21T19:36:48;6.88;;;4.03;;
83443;SDS011;73374;41.170;-96.156;2024-02-21T19:41:53;7.25;;;3.63;;
83443;SDS011;73374;41.170;-96.156;2024-02-21T19:46:56;10.57;;;3.88;;
83443;SDS011;73374;41.170;-96.156;2024-02-21T19:51:59;7.32;;;4.03;;
83443;SDS011;73374;41.170;-96.156;2024-02-21T19:57:04;8.35;;;3.90;;
83443;SDS011;73374;41.170;-96.156;2024-02-21T20:02:07;9.48;;;3.55;;
83443;SDS011;73374;41.170;-96.156;2024-02-21T20:07:10;6.93;;;3.83;;
83443;SDS011;73374;41.170;-96.156;2024-02-21T20:12:15;10.77;;;3.22;;
83443;SDS011;73374;41.170;-96.156;2024-02-21T20:17:19;7.65;;;2.90;;
83443;SDS011;73374;41.170;-96.156;2024-02-21T20:22:22;5.78;;;2.60;;
83443;SDS011;73374;41.170;-96.156;2024-02-21T20:27:26;8.30;;;2.30;;
83443;SDS011;73374;41.170;-96.156;2024-02-21T20:32:29;8.25;;;2.42;;
83443;SDS011;73374;41.170;-96.156;2024-02-21T20:37:32;8.35;;;2.58;;
83443;SDS011;73374;41.170;-96.156;2024-02-21T20:42:37;2.97;;;1.77;;
83443;SDS011;73374;41.170;-96.156;2024-02-21T20:47:40;6.50;;;2.55;;
83443;SDS011;73374;41.170;-96.156;2024-02-21T20:52:43;8.07;;;2.17;;
83443;SDS011;73374;41.170;-96.156;2024-02-21T20:57:48;9.70;;;2.38;;
83443;SDS011;73374;41.170;-96.156;2024-02-21T21:02:51;5.88;;;2.38;;
83443;SDS011;73374;41.170;-96.156;2024-02-21T21:07:54;5.38;;;2.42;;
83443;SDS011;73374;41.170;-96.156;2024-02-21T21:12:59;6.78;;;2.78;;
83443;SDS011;73374;41.170;-96.156;2024-02-21T21:18:02;6.80;;;2.63;;
83443;SDS011;73374;41.170;-96.156;2024-02-21T21:23:06;8.93;;;2.95;;
83443;SDS011;73374;41.170;-96.156;2024-02-21T21:28:10;12.25;;;3.00;;
83443;SDS011;73374;41.170;-96.156;2024-02-21T21:33:13;9.07;;;2.90;;
83443;SDS011;73374;41.170;-96.156;2024-02-21T21:38:17;6.22;;;2.13;;
83443;SDS011;73374;41.170;-96.156;2024-02-21T21:43:21;8.20;;;2.13;;
83443;SDS011;73374;41.170;-96.156;2024-02-21T21:48:24;4.32;;;1.52;;
83443;SDS011;73374;41.170;-96.156;2024-02-21T21:53:28;5.80;;;1.83;;
83443;SDS011;73374;41.170;-96.156;2024-02-21T21:58:32;8.82;;;1.90;;
83443;SDS011;73374;41.170;-96.156;2024-02-21T22:03:35;5.07;;;0.80;;
83443;SDS011;73374;41.170;-96.156;2024-02-21T22:08:39;2.35;;;0.40;;
83443;SDS011;73374;41.170;-96.156;2024-02-21T22:13:49;4.20;;;0.40;;
83443;SDS011;73374;41.170;-96.156;2024-02-21T22:18:52;2.80;;;0.50;;
83443;SDS011;73374;41.170;-96.156;2024-02-21T22:23:55;3.15;;;0.38;;
83443;SDS011;73374;41.170;-96.156;2024-02-21T22:29:00;0.65;;;0.30;;
83443;SDS011;73374;41.170;-96.156;2024-02-21T22:34:03;1.42;;;0.20;;
83443;SDS011;73374;41.170;-96.156;2024-02-21T22:39:06;3.30;;;0.68;;
83443;SDS011;73374;41.170;-96.156;2024-02-21T22:44:11;1.02;;;0.30;;
83443;SDS011;73374;41.170;-96.156;2024-02-21T22:49:14;7.22;;;0.40;;
83443;SDS011;73374;41.170;-96.156;2024-02-21T22:54:17;12.20;;;0.88;;
83443;SDS011;73374;41.170;-96.156;2024-02-21T22:59:21;5.80;;;0.30;;
83443;SDS011;73374;41.170;-96.156;2024-02-21T23:04:24;5.90;;;0.52;;
83443;SDS011;73374;41.170;-96.156;2024-02-21T23:09:28;2.58;;;0.40;;
83443;SDS011;73374;41.170;-96.156;2024-02-21T23:14:33;6.13;;;0.80;;
83443;SDS011;73374;41.170;-96.156;2024-02-21T23:19:36;3.95;;;0.50;;
83443;SDS011;73374;41.170;-96.156;2024-02-21T23:24:39;9.32;;;0.50;;
83443;SDS011;73374;41.170;-96.156;2024-02-21T23:29:44;3.53;;;0.50;;
83443;SDS011;73374;41.170;-96.156;2024-02-21T23:34:47;12.80;;;0.90;;
83443;SDS011;73374;41.170;-96.156;2024-02-21T23:39:50;4.32;;;0.45;;
83443;SDS011;73374;41.170;-96.156;2024-02-21T23:44:55;7.32;;;0.80;;
83443;SDS011;73374;41.170;-96.156;2024-02-21T23:49:58;3.25;;;0.35;;
83443;SDS011;73374;41.170;-96.156;2024-02-21T23:55:01;1.33;;;0.45;;
